Time;durP1;ratioP1;P1;durP2;ratioP2;P2;SDS_P1;SDS_P2;PMS_P1;PMS_P2;Temp;Humidity;BMP_temperature;BMP_pressure;BME280_temperature;BME280_humidity;BME280_pressure;Samples;Min_cycle;Max_cycle;Signal;HPM_P1;HPM_P2
2023/03/08 00:01:18;;;;;;;3.13;1.20;;;1.70;99.90;;;;;;5034653;28;20195;-87
2023/03/08 00:03:45;;;;;;;3.07;0.80;;;1.60;99.90;;;;;;5034100;28;20209;-87
2023/03/08 00:06:15;;;;;;;1.97;0.70;;;1.60;99.90;;;;;;5052562;28;20230;-86
2023/03/08 00:08:43;;;;;;;4.07;0.90;;;1.50;99.90;;;;;;5054516;28;20273;-88
2023/03/08 00:11:12;;;;;;;3.53;0.80;;;1.50;99.90;;;;;;5053562;28;20655;-88
2023/03/08 00:13:39;;;;;;;4.93;1.13;;;1.50;99.90;;;;;;5054516;28;20193;-88
2023/03/08 00:16:08;;;;;;;3.10;0.93;;;1.50;99.90;;;;;;5054459;28;20261;-87
2023/03/08 00:18:36;;;;;;;5.77;1.03;;;1.60;99.90;;;;;;5052950;28;20256;-85
2023/03/08 00:21:05;;;;;;;2.20;0.77;;;1.70;99.90;;;;;;5034671;28;20499;-87
2023/03/08 00:23:33;;;;;;;2.23;0.60;;;2.00;99.90;;;;;;5033588;28;20325;-86
2023/03/08 00:26:01;;;;;;;5.90;0.80;;;2.20;99.90;;;;;;5033256;28;20622;-87
2023/03/08 00:28:28;;;;;;;1.93;0.70;;;2.40;99.90;;;;;;5032676;28;20669;-87
2023/03/08 00:30:56;;;;;;;1.27;0.80;;;2.40;99.90;;;;;;5032836;28;20286;-81
2023/03/08 00:33:23;;;;;;;3.07;0.70;;;2.40;99.90;;;;;;5032350;28;20206;-82
2023/03/08 00:35:58;;;;;;;0.93;0.50;;;2.40;99.90;;;;;;5032459;28;20329;-81
2023/03/08 00:38:25;;;;;;;2.93;0.70;;;2.30;99.90;;;;;;5032529;28;20240;-78
2023/03/08 00:40:54;;;;;;;1.10;0.53;;;2.20;99.90;;;;;;5032245;28;20281;-80
2023/03/08 00:43:21;;;;;;;1.37;0.40;;;2.10;99.90;;;;;;5032616;28;20193;-81
2023/03/08 00:45:48;;;;;;;0.50;0.50;;;2.00;99.90;;;;;;5031505;28;20214;-79
2023/03/08 00:48:15;;;;;;;1.03;0.60;;;2.00;99.90;;;;;;5032241;28;20214;-80
2023/03/08 00:50:42;;;;;;;0.77;0.40;;;1.90;99.90;;;;;;5034722;28;20237;-85
2023/03/08 00:53:11;;;;;;;0.97;0.50;;;1.90;99.90;;;;;;5035901;28;20205;-84
2023/03/08 00:55:37;;;;;;;0.63;0.50;;;1.90;99.90;;;;;;5036000;28;20232;-83
2023/03/08 00:58:06;;;;;;;2.03;0.70;;;1.80;99.90;;;;;;5036054;28;20281;-79
2023/03/08 01:00:33;;;;;;;0.93;0.40;;;1.70;99.90;;;;;;5035850;28;20206;-81
2023/03/08 01:03:00;;;;;;;2.47;1.00;;;1.70;99.90;;;;;;5035933;28;20205;-85
2023/03/08 01:05:27;;;;;;;2.00;0.60;;;1.70;99.90;;;;;;5035649;28;20199;-82
2023/03/08 01:07:54;;;;;;;0.67;0.53;;;1.60;99.90;;;;;;5035206;28;20194;-79
2023/03/08 01:10:20;;;;;;;0.63;0.50;;;1.60;99.90;;;;;;5036012;28;20206;-85
2023/03/08 01:12:47;;;;;;;2.33;0.70;;;1.50;99.90;;;;;;5036908;28;20233;-88
2023/03/08 01:15:16;;;;;;;2.10;0.60;;;1.50;99.90;;;;;;5036569;28;20948;-88
2023/03/08 01:17:43;;;;;;;2.50;1.00;;;1.50;99.90;;;;;;5053956;28;20297;-84
2023/03/08 01:20:11;;;;;;;1.07;0.63;;;1.50;99.90;;;;;;5046365;28;20344;-88
2023/03/08 01:22:38;;;;;;;2.10;1.07;;;1.40;99.90;;;;;;5035637;28;20304;-86
2023/03/08 01:25:05;;;;;;;3.40;1.00;;;1.40;99.90;;;;;;5036591;28;20284;-87
2023/03/08 01:27:32;;;;;;;1.33;0.80;;;1.40;99.90;;;;;;5036854;28;20527;-82
2023/03/08 01:29:59;;;;;;;1.83;0.80;;;1.40;99.90;;;;;;5036296;28;20203;-82
2023/03/08 01:32:27;;;;;;;1.07;0.50;;;1.40;99.90;;;;;;5037136;28;20305;-87
2023/03/08 01:34:55;;;;;;;1.07;0.70;;;1.40;99.90;;;;;;5036781;28;20302;-86
2023/03/08 01:37:22;;;;;;;3.17;0.80;;;1.30;99.90;;;;;;5036946;28;20214;-86
2023/03/08 01:39:49;;;;;;;7.60;2.00;;;1.30;99.90;;;;;;5036803;28;20203;-82
2023/03/08 01:42:16;;;;;;;2.00;0.70;;;1.30;99.90;;;;;;5052714;28;20293;-87
2023/03/08 01:44:54;;;;;;;1.23;0.50;;;1.30;99.90;;;;;;5046832;28;20225;-85
2023/03/08 01:47:23;;;;;;;2.30;0.70;;;1.30;99.90;;;;;;5036596;28;20558;-83
2023/03/08 01:49:53;;;;;;;2.73;0.70;;;1.20;99.90;;;;;;5036140;28;20209;-85
2023/03/08 01:52:25;;;;;;;3.07;0.70;;;1.20;99.90;;;;;;5056613;28;20294;-85
2023/03/08 01:54:55;;;;;;;2.47;0.70;;;1.20;99.90;;;;;;5055727;28;20277;-82
2023/03/08 01:57:25;;;;;;;4.23;0.60;;;1.20;99.90;;;;;;5055658;28;20244;-84
2023/03/08 01:59:56;;;;;;;4.63;1.17;;;1.20;99.90;;;;;;5048457;28;20291;-79
2023/03/08 02:02:27;;;;;;;1.73;0.70;;;1.10;99.90;;;;;;5035380;28;20205;-84
2023/03/08 02:04:56;;;;;;;1.60;0.60;;;1.10;99.90;;;;;;5034699;28;20231;-80
2023/03/08 02:07:22;;;;;;;1.20;0.60;;;1.10;99.90;;;;;;5035065;28;20270;-81
2023/03/08 02:09:50;;;;;;;3.80;0.57;;;1.10;99.90;;;;;;5034964;28;20309;-81
2023/03/08 02:12:17;;;;;;;0.90;0.73;;;1.00;99.90;;;;;;5034484;28;20210;-79
2023/03/08 02:14:45;;;;;;;0.80;0.50;;;1.00;99.90;;;;;;5034302;28;20213;-79
2023/03/08 02:17:12;;;;;;;1.47;0.50;;;1.00;99.90;;;;;;5034349;28;20207;-78
2023/03/08 02:19:45;;;;;;;0.63;0.60;;;1.00;99.90;;;;;;5035031;28;20209;-82
2023/03/08 02:22:15;;;;;;;0.80;0.80;;;0.90;99.90;;;;;;5035737;28;20654;-80
2023/03/08 02:24:44;;;;;;;3.67;0.80;;;1.00;99.90;;;;;;5035244;28;20193;-83
2023/03/08 02:27:15;;;;;;;2.97;1.00;;;1.00;99.90;;;;;;5035118;28;20566;-79
2023/03/08 02:29:42;;;;;;;0.60;0.60;;;1.00;99.90;;;;;;5035136;28;20203;-84
2023/03/08 02:32:09;;;;;;;2.83;0.70;;;1.00;99.90;;;;;;5034820;28;20219;-83
2023/03/08 02:34:37;;;;;;;2.43;0.80;;;1.00;99.90;;;;;;5034985;28;20202;-80
2023/03/08 02:37:04;;;;;;;3.50;1.00;;;1.00;99.90;;;;;;5035558;28;20226;-85
2023/03/08 02:39:31;;;;;;;2.73;1.00;;;1.00;99.90;;;;;;5035232;28;20220;-82
2023/03/08 02:41:59;;;;;;;1.57;0.93;;;1.00;99.90;;;;;;5034687;28;20294;-79
2023/03/08 02:44:26;;;;;;;1.43;0.97;;;1.00;99.90;;;;;;5035407;28;20281;-82
2023/03/08 02:46:53;;;;;;;2.10;1.13;;;1.00;99.90;;;;;;5035539;28;20226;-85
2023/03/08 02:49:20;;;;;;;2.23;1.17;;;0.90;99.90;;;;;;5035326;28;20234;-80
2023/03/08 02:51:47;;;;;;;6.63;1.87;;;0.90;99.90;;;;;;5034716;28;20278;-81
2023/03/08 02:54:14;;;;;;;2.00;1.20;;;0.90;99.90;;;;;;5033772;28;20238;-84
2023/03/08 02:56:40;;;;;;;3.43;1.20;;;0.90;99.90;;;;;;5034505;28;20218;-86
2023/03/08 02:59:09;;;;;;;2.93;1.30;;;0.90;99.90;;;;;;5034573;28;20217;-86
2023/03/08 03:01:36;;;;;;;3.00;1.37;;;0.80;99.90;;;;;;5034137;28;20277;-82
2023/03/08 03:04:03;;;;;;;3.90;1.37;;;0.80;99.90;;;;;;5034358;28;20621;-83
2023/03/08 03:06:30;;;;;;;2.40;1.60;;;0.80;99.90;;;;;;5034500;28;20285;-85
2023/03/08 03:08:57;;;;;;;2.90;1.80;;;0.80;99.90;;;;;;5034380;28;20576;-88
2023/03/08 03:11:24;;;;;;;2.23;1.60;;;0.80;99.90;;;;;;5034428;28;20220;-84
2023/03/08 03:13:55;;;;;;;1.73;1.47;;;0.80;99.90;;;;;;5034003;28;20199;-86
2023/03/08 03:16:25;;;;;;;2.27;1.87;;;0.70;99.90;;;;;;5034564;28;20219;-86
2023/03/08 03:18:53;;;;;;;2.30;1.57;;;0.70;99.90;;;;;;5034539;28;20264;-88
2023/03/08 03:21:20;;;;;;;2.13;1.50;;;0.70;99.90;;;;;;5034101;28;20194;-86
2023/03/08 03:23:47;;;;;;;6.43;2.33;;;0.70;99.90;;;;;;5034278;28;20324;-84
2023/03/08 03:26:17;;;;;;;3.50;1.50;;;0.60;99.90;;;;;;5034394;28;20305;-84
2023/03/08 03:28:44;;;;;;;3.37;1.90;;;0.60;99.90;;;;;;5033993;28;20199;-82
2023/03/08 03:31:15;;;;;;;2.40;1.67;;;0.60;99.90;;;;;;5037549;28;20659;-85
2023/03/08 03:33:44;;;;;;;4.27;1.97;;;0.60;99.90;;;;;;5053682;28;20190;-82
2023/03/08 03:36:13;;;;;;;3.43;2.00;;;0.60;99.90;;;;;;5039031;28;20325;-83
2023/03/08 03:38:41;;;;;;;3.10;1.97;;;0.50;99.90;;;;;;5033407;28;20289;-79
2023/03/08 03:41:09;;;;;;;1.57;1.47;;;0.50;99.90;;;;;;5033123;28;20611;-79
2023/03/08 03:43:37;;;;;;;2.13;1.67;;;0.50;99.90;;;;;;5032904;28;20203;-85
2023/03/08 03:46:06;;;;;;;2.63;1.77;;;0.50;99.90;;;;;;5032945;28;20333;-81
2023/03/08 03:48:34;;;;;;;3.57;2.13;;;0.50;99.90;;;;;;5033467;28;20294;-86
2023/03/08 03:51:05;;;;;;;5.90;2.20;;;0.40;99.90;;;;;;5033177;28;20194;-78
2023/03/08 03:53:34;;;;;;;3.93;2.17;;;0.40;99.90;;;;;;5033745;28;20274;-87
2023/03/08 03:56:03;;;;;;;2.13;1.60;;;0.30;99.90;;;;;;5033263;28;20226;-80
2023/03/08 03:58:30;;;;;;;1.60;1.47;;;0.30;99.90;;;;;;5042343;28;20204;-82
2023/03/08 04:00:57;;;;;;;2.53;1.70;;;0.30;99.90;;;;;;5053325;28;20265;-87
2023/03/08 04:03:25;;;;;;;1.87;1.50;;;0.20;99.90;;;;;;5038513;28;20296;-79
2023/03/08 04:05:52;;;;;;;2.07;1.70;;;0.20;99.90;;;;;;5033720;28;20245;-86
2023/03/08 04:08:20;;;;;;;2.60;1.60;;;0.20;99.90;;;;;;5033857;28;20225;-84
2023/03/08 04:10:47;;;;;;;2.93;1.87;;;0.20;99.90;;;;;;5033306;28;20210;-86
2023/03/08 04:13:14;;;;;;;1.80;1.70;;;0.10;99.90;;;;;;5033453;28;20290;-79
2023/03/08 04:15:41;;;;;;;5.20;2.10;;;0.10;99.90;;;;;;5033874;28;20317;-86
2023/03/08 04:18:07;;;;;;;2.57;2.00;;;0.10;99.90;;;;;;5033558;28;20230;-84
2023/03/08 04:20:34;;;;;;;2.43;1.70;;;0.20;99.90;;;;;;5033771;28;20281;-85
2023/03/08 04:23:01;;;;;;;2.43;1.80;;;0.20;99.90;;;;;;5033341;28;20231;-87
2023/03/08 04:25:29;;;;;;;4.53;1.97;;;0.20;99.90;;;;;;5033031;28;20209;-83
2023/03/08 04:27:56;;;;;;;2.70;1.80;;;0.20;99.90;;;;;;5033477;28;20199;-82
2023/03/08 04:30:23;;;;;;;2.23;1.80;;;0.20;99.90;;;;;;5034005;28;20230;-86
2023/03/08 04:32:50;;;;;;;3.40;1.90;;;0.10;99.90;;;;;;5032104;28;20294;-84
2023/03/08 04:35:17;;;;;;;4.27;2.27;;;0.10;99.90;;;;;;5032538;28;20295;-85
2023/03/08 04:37:45;;;;;;;1.80;1.70;;;0.10;99.90;;;;;;5032551;28;20222;-84
2023/03/08 04:40:13;;;;;;;2.20;1.90;;;0.10;99.90;;;;;;5033044;28;20293;-84
2023/03/08 04:42:41;;;;;;;2.20;1.90;;;0.10;99.90;;;;;;5032699;28;20206;-86
2023/03/08 04:45:09;;;;;;;2.37;2.03;;;0.00;99.90;;;;;;5032935;28;20202;-84
2023/03/08 04:47:36;;;;;;;2.17;1.97;;;0.00;99.90;;;;;;5044257;28;20301;-89
2023/03/08 04:50:03;;;;;;;3.30;2.03;;;0.00;99.90;;;;;;5053926;28;20240;-85
2023/03/08 04:52:30;;;;;;;3.00;2.10;;;0.00;99.90;;;;;;5051050;28;20277;-81
2023/03/08 04:54:57;;;;;;;4.57;2.50;;;0.00;99.90;;;;;;5032467;28;20237;-84
2023/03/08 04:57:23;;;;;;;3.93;2.23;;;0.00;99.90;;;;;;5032408;28;20210;-83
2023/03/08 04:59:52;;;;;;;2.50;2.10;;;0.00;99.90;;;;;;5031648;28;20289;-86
2023/03/08 05:02:19;;;;;;;5.03;2.53;;;0.00;99.90;;;;;;5031706;28;20194;-87
2023/03/08 05:04:46;;;;;;;2.90;2.30;;;0.00;99.90;;;;;;5032416;28;20283;-85
2023/03/08 05:07:12;;;;;;;3.00;2.40;;;0.10;99.90;;;;;;5043602;28;20282;-83
2023/03/08 05:09:39;;;;;;;3.83;2.70;;;0.10;99.90;;;;;;5053566;28;20513;-84
2023/03/08 05:12:07;;;;;;;2.90;2.60;;;0.10;99.90;;;;;;5052357;28;20292;-88
2023/03/08 05:14:34;;;;;;;2.33;2.13;;;0.10;99.90;;;;;;5044711;28;20239;-88
2023/03/08 05:17:02;;;;;;;2.40;2.10;;;0.10;99.90;;;;;;5032919;28;20229;-88
2023/03/08 05:19:29;;;;;;;2.90;2.10;;;0.10;99.90;;;;;;5033008;28;20293;-89
2023/03/08 05:21:56;;;;;;;5.17;2.20;;;0.10;99.90;;;;;;5033184;28;20194;-86
2023/03/08 05:24:23;;;;;;;3.73;2.40;;;0.10;99.90;;;;;;5033383;28;20334;-89
2023/03/08 05:26:50;;;;;;;2.30;2.10;;;0.10;99.90;;;;;;5033558;28;20243;-88
2023/03/08 05:29:16;;;;;;;5.43;2.83;;;0.20;99.90;;;;;;5033343;28;20428;-87
2023/03/08 05:31:44;;;;;;;5.17;2.70;;;0.20;99.90;;;;;;5033246;28;20222;-90
2023/03/08 05:34:12;;;;;;;3.87;2.90;;;0.20;99.90;;;;;;5033112;28;20206;-87
2023/03/08 05:36:40;;;;;;;5.90;2.70;;;0.20;99.90;;;;;;5036076;28;20220;-87
2023/03/08 05:39:08;;;;;;;3.37;3.03;;;0.30;99.90;;;;;;5040396;28;20205;-88
2023/03/08 05:41:35;;;;;;;3.90;2.40;;;0.30;99.90;;;;;;5057023;28;20194;-87
2023/03/08 05:44:02;;;;;;;3.43;2.60;;;0.30;99.90;;;;;;5056884;28;20202;-87
2023/03/08 05:46:29;;;;;;;2.90;2.40;;;0.30;99.90;;;;;;5043940;28;20652;-88
2023/03/08 05:48:56;;;;;;;2.77;2.57;;;0.30;99.90;;;;;;5035638;28;20285;-81
2023/03/08 05:51:24;;;;;;;4.17;3.00;;;0.30;99.90;;;;;;5035402;28;20237;-82
2023/03/08 05:53:51;;;;;;;4.27;2.90;;;0.30;99.90;;;;;;5035405;28;20603;-86
2023/03/08 05:56:19;;;;;;;4.37;3.00;;;0.30;99.90;;;;;;5036297;28;20225;-88
2023/03/08 05:58:46;;;;;;;4.07;2.87;;;0.30;99.90;;;;;;5036200;28;20206;-80
2023/03/08 06:01:16;;;;;;;2.87;2.57;;;0.30;99.90;;;;;;5036129;28;20234;-85
2023/03/08 06:03:43;;;;;;;6.00;2.70;;;0.30;99.90;;;;;;5035640;28;20199;-80
2023/03/08 06:06:10;;;;;;;5.10;3.73;;;0.30;99.90;;;;;;5035932;28;20285;-84
2023/03/08 06:08:39;;;;;;;5.40;3.40;;;0.30;99.90;;;;;;5035782;28;20226;-83
2023/03/08 06:11:06;;;;;;;7.37;4.87;;;0.30;99.90;;;;;;5035013;28;20208;-81
2023/03/08 06:13:33;;;;;;;5.77;3.50;;;0.40;99.90;;;;;;5035335;28;20598;-87
2023/03/08 06:16:01;;;;;;;4.40;3.20;;;0.40;99.90;;;;;;5035405;28;20249;-80
2023/03/08 06:18:29;;;;;;;7.37;3.77;;;0.40;99.90;;;;;;5035080;28;20313;-85
2023/03/08 06:20:57;;;;;;;13.97;4.40;;;0.50;99.90;;;;;;5035043;28;20271;-88
2023/03/08 06:23:24;;;;;;;9.40;4.93;;;0.50;99.90;;;;;;5035091;28;20223;-86
2023/03/08 06:25:53;;;;;;;6.60;4.30;;;0.50;99.90;;;;;;5034921;28;20227;-84
2023/03/08 06:28:20;;;;;;;7.00;3.77;;;0.50;99.90;;;;;;5035543;28;20249;-82
2023/03/08 06:30:49;;;;;;;6.27;3.73;;;0.50;99.90;;;;;;5038560;28;20273;-85
2023/03/08 06:33:16;;;;;;;5.97;3.73;;;0.60;99.90;;;;;;5040533;28;20203;-80
2023/03/08 06:35:43;;;;;;;10.00;5.43;;;0.50;99.90;;;;;;5035066;28;20199;-79
2023/03/08 06:38:10;;;;;;;7.87;4.90;;;0.60;99.90;;;;;;5033307;28;20309;-84
2023/03/08 06:40:36;;;;;;;5.83;4.30;;;0.60;99.90;;;;;;5034038;28;20241;-80
2023/03/08 06:43:05;;;;;;;8.97;4.67;;;0.60;99.90;;;;;;5042717;28;20755;-80
2023/03/08 06:45:33;;;;;;;9.93;5.07;;;0.60;99.90;;;;;;5053384;28;20590;-83
2023/03/08 06:48:00;;;;;;;8.00;4.87;;;0.70;99.90;;;;;;5051807;28;20214;-79
2023/03/08 06:50:27;;;;;;;6.30;4.30;;;0.70;99.90;;;;;;5051275;28;20210;-82
2023/03/08 06:52:55;;;;;;;7.63;4.23;;;0.70;99.90;;;;;;5033412;28;20269;-79
2023/03/08 06:55:22;;;;;;;6.30;3.90;;;0.70;99.90;;;;;;5033692;28;20241;-80
2023/03/08 06:57:49;;;;;;;9.93;5.43;;;0.70;99.90;;;;;;5033860;28;20762;-79
2023/03/08 07:00:19;;;;;;;6.03;4.60;;;0.80;99.90;;;;;;5033317;28;20213;-81
2023/03/08 07:02:47;;;;;;;8.47;4.73;;;0.80;99.90;;;;;;5033660;28;20285;-78
2023/03/08 07:05:14;;;;;;;9.70;5.07;;;0.80;99.90;;;;;;5033584;28;20241;-80
2023/03/08 07:07:41;;;;;;;5.53;4.20;;;0.90;99.90;;;;;;5033229;28;20285;-78
2023/03/08 07:10:10;;;;;;;6.23;4.60;;;0.90;99.90;;;;;;5034485;28;20202;-84
2023/03/08 07:12:39;;;;;;;8.70;5.03;;;0.90;99.90;;;;;;5036372;28;20194;-80
2023/03/08 07:15:07;;;;;;;7.23;5.30;;;1.00;99.90;;;;;;5053142;28;20209;-79
2023/03/08 07:17:36;;;;;;;8.07;5.80;;;1.00;99.90;;;;;;5043520;28;20314;-80
2023/03/08 07:20:05;;;;;;;8.23;5.43;;;1.10;99.90;;;;;;5032921;28;20234;-80
2023/03/08 07:22:32;;;;;;;8.33;6.10;;;1.10;99.90;;;;;;5032835;28;20195;-83
2023/03/08 07:24:59;;;;;;;8.87;6.10;;;1.20;99.90;;;;;;5033078;28;20290;-80
2023/03/08 07:27:26;;;;;;;8.27;6.30;;;1.20;99.90;;;;;;5032830;28;20223;-80
2023/03/08 07:29:52;;;;;;;9.40;6.60;;;1.30;99.90;;;;;;5032917;28;20245;-79
2023/03/08 07:32:19;;;;;;;10.50;6.97;;;1.40;99.90;;;;;;5034222;28;20237;-89
2023/03/08 07:34:48;;;;;;;11.93;7.47;;;1.40;99.90;;;;;;5034023;28;20195;-84
2023/03/08 07:37:16;;;;;;;8.30;6.87;;;1.50;99.90;;;;;;5034572;28;20261;-84
2023/03/08 07:39:43;;;;;;;10.97;7.80;;;1.50;99.90;;;;;;5034544;28;20234;-89
2023/03/08 07:42:11;;;;;;;9.30;8.07;;;1.50;99.90;;;;;;5034007;28;20286;-88
2023/03/08 07:44:38;;;;;;;10.93;7.77;;;1.60;99.90;;;;;;5034277;28;20199;-88
2023/03/08 07:47:06;;;;;;;9.63;8.03;;;1.60;99.90;;;;;;5033532;28;20203;-88
2023/03/08 07:49:33;;;;;;;9.73;7.60;;;1.60;99.90;;;;;;5032682;28;20203;-88
2023/03/08 07:52:01;;;;;;;9.67;8.47;;;1.70;99.90;;;;;;5039202;28;20579;-88
2023/03/08 07:54:28;;;;;;;10.63;8.50;;;1.70;99.90;;;;;;5054005;28;20284;-85
2023/03/08 07:56:56;;;;;;;11.30;9.20;;;1.80;99.90;;;;;;5054709;28;20594;-85
2023/03/08 07:59:35;;;;;;;14.13;8.93;;;1.80;99.90;;;;;;5025150;28;20214;-86
2023/03/08 08:02:02;;;;;;;10.70;8.53;;;1.90;99.90;;;;;;5049173;28;20260;-86
2023/03/08 08:04:29;;;;;;;9.60;8.70;;;2.00;99.90;;;;;;5050309;28;20296;-85
2023/03/08 08:06:58;;;;;;;9.57;8.07;;;2.00;99.90;;;;;;5049078;28;20202;-86
2023/03/08 08:09:26;;;;;;;9.80;8.90;;;2.10;99.90;;;;;;5052140;28;20289;-87
2023/03/08 08:11:53;;;;;;;10.03;8.63;;;2.10;99.90;;;;;;5045344;28;20214;-78
2023/03/08 08:14:20;;;;;;;9.63;8.70;;;2.20;99.90;;;;;;5050115;28;20367;-85
2023/03/08 08:16:47;;;;;;;13.40;9.27;;;2.20;99.90;;;;;;5033745;28;20602;-84
2023/03/08 08:19:14;;;;;;;9.97;8.37;;;2.20;99.90;;;;;;5034079;28;20256;-79
2023/03/08 08:21:41;;;;;;;11.17;8.17;;;2.30;99.90;;;;;;5032409;28;20204;-83
2023/03/08 08:24:09;;;;;;;11.37;8.63;;;2.40;99.90;;;;;;5050478;28;20321;-85
2023/03/08 08:26:37;;;;;;;10.90;7.97;;;2.40;99.90;;;;;;5054215;28;20214;-80
2023/03/08 08:29:04;;;;;;;8.97;7.43;;;2.50;99.90;;;;;;5039907;28;20237;-82
2023/03/08 08:31:31;;;;;;;7.93;7.13;;;2.50;99.90;;;;;;5034104;28;20664;-85
2023/03/08 08:33:58;;;;;;;10.23;7.27;;;2.60;99.90;;;;;;5044493;28;20202;-86
2023/03/08 08:36:25;;;;;;;7.70;6.80;;;2.60;99.90;;;;;;5045205;28;20750;-86
2023/03/08 08:38:52;;;;;;;8.37;7.03;;;2.60;99.90;;;;;;5044526;28;20305;-86
2023/03/08 08:41:21;;;;;;;6.63;5.60;;;2.70;99.90;;;;;;5050054;28;20201;-86
2023/03/08 08:43:50;;;;;;;6.27;5.67;;;2.70;99.90;;;;;;5042149;28;20229;-86
2023/03/08 08:46:18;;;;;;;6.30;5.67;;;2.80;99.90;;;;;;5040764;28;20520;-86
2023/03/08 08:48:45;;;;;;;6.53;5.60;;;2.90;99.90;;;;;;5052052;28;20225;-84
2023/03/08 08:51:13;;;;;;;6.53;5.67;;;2.90;99.90;;;;;;5047779;28;20205;-85
2023/03/08 08:53:40;;;;;;;6.40;5.80;;;3.00;99.90;;;;;;5040455;28;20202;-82
2023/03/08 08:56:12;;;;;;;6.80;4.97;;;3.10;99.90;;;;;;5033646;28;20233;-84
2023/03/08 08:58:39;;;;;;;6.83;4.60;;;3.20;99.90;;;;;;5043030;28;20218;-86
2023/03/08 09:01:13;;;;;;;5.83;4.53;;;3.20;99.90;;;;;;5048492;28;20202;-88
2023/03/08 09:03:40;;;;;;;12.00;6.60;;;3.30;99.90;;;;;;5054170;28;20195;-87
2023/03/08 09:06:08;;;;;;;4.50;4.10;;;3.40;99.90;;;;;;5044180;28;20206;-87
2023/03/08 09:08:35;;;;;;;5.00;4.50;;;3.50;99.90;;;;;;5053781;28;20300;-87
2023/03/08 09:11:06;;;;;;;7.77;5.13;;;3.60;99.90;;;;;;5052152;28;20668;-87
2023/03/08 09:13:33;;;;;;;5.73;3.73;;;3.80;99.90;;;;;;5057205;28;20216;-84
2023/03/08 09:16:00;;;;;;;5.67;3.80;;;3.80;99.90;;;;;;5057468;28;20581;-88
2023/03/08 09:18:29;;;;;;;6.23;4.57;;;3.90;99.90;;;;;;5056072;28;20301;-86
2023/03/08 09:20:56;;;;;;;6.80;4.03;;;4.00;99.90;;;;;;5057760;28;20284;-87
2023/03/08 09:23:23;;;;;;;6.67;4.17;;;4.10;99.90;;;;;;5056563;28;20238;-88
2023/03/08 09:25:57;;;;;;;3.90;3.47;;;4.20;99.90;;;;;;5056590;28;20232;-85
2023/03/08 09:28:24;;;;;;;5.73;3.70;;;4.30;99.90;;;;;;5045034;28;20300;-86
2023/03/08 09:30:52;;;;;;;8.77;3.87;;;4.40;99.90;;;;;;5056352;28;20260;-84
2023/03/08 09:33:19;;;;;;;5.70;3.43;;;4.50;99.90;;;;;;5056267;28;20205;-85
2023/03/08 09:35:55;;;;;;;3.63;3.10;;;4.40;99.90;;;;;;5047340;28;20744;-84
2023/03/08 09:38:22;;;;;;;5.37;3.10;;;4.40;99.90;;;;;;5044827;28;20206;-86
2023/03/08 09:40:58;;;;;;;5.00;3.53;;;4.30;99.90;;;;;;5056724;28;20232;-86
2023/03/08 09:43:33;;;;;;;5.17;3.80;;;4.30;99.90;;;;;;5038759;28;20217;-78
2023/03/08 09:46:00;;;;;;;7.50;4.33;;;4.40;99.90;;;;;;5035007;28;20183;-77
2023/03/08 09:48:29;;;;;;;8.83;4.07;;;4.40;99.90;;;;;;5042233;28;20566;-78
2023/03/08 09:51:02;;;;;;;7.63;4.47;;;4.50;99.90;;;;;;5046089;28;20194;-82
2023/03/08 09:53:35;;;;;;;5.27;3.70;;;4.60;99.90;;;;;;5038135;28;20198;-76
2023/03/08 09:56:07;;;;;;;8.10;3.90;;;4.70;99.90;;;;;;5038011;28;20205;-76
2023/03/08 09:58:40;;;;;;;7.60;3.83;;;4.70;99.90;;;;;;5049003;28;20590;-79
2023/03/08 10:01:21;;;;;;;5.07;3.77;;;4.80;99.90;;;;;;5053366;28;20609;-82
2023/03/08 10:04:20;;;;;;;6.97;3.60;;;4.80;99.90;;;;;;5045108;28;20298;-77
2023/03/08 10:07:00;;;;;;;3.17;2.87;;;4.80;99.90;;;;;;5009874;28;20210;-77
2023/03/08 10:09:32;;;;;;;6.77;3.37;;;4.80;99.90;;;;;;5039488;28;20286;-77
2023/03/08 10:12:09;;;;;;;3.90;3.13;;;4.80;99.90;;;;;;5045239;28;20198;-77
2023/03/08 10:14:39;;;;;;;6.03;2.73;;;5.00;99.90;;;;;;5041551;28;20620;-81
2023/03/08 10:17:12;;;;;;;4.30;2.87;;;5.00;99.90;;;;;;5053712;28;20296;-86
2023/03/08 10:19:45;;;;;;;4.27;3.20;;;5.00;99.90;;;;;;5053913;28;20202;-82
2023/03/08 10:22:20;;;;;;;4.60;3.53;;;5.00;99.90;;;;;;5054253;28;20267;-81
2023/03/08 10:24:52;;;;;;;9.00;4.00;;;5.10;99.90;;;;;;5053804;28;20705;-79
2023/03/08 10:27:21;;;;;;;5.20;4.00;;;5.10;99.90;;;;;;5034632;28;20250;-87
2023/03/08 10:29:50;;;;;;;15.60;4.30;;;5.10;99.90;;;;;;5035969;28;20254;-90
2023/03/08 10:32:17;;;;;;;7.20;3.83;;;5.20;99.90;;;;;;5036562;28;20233;-91
2023/03/08 10:34:44;;;;;;;4.37;3.73;;;5.10;99.90;;;;;;5035369;28;20633;-84
2023/03/08 10:37:11;;;;;;;5.20;3.33;;;5.20;99.90;;;;;;5034779;28;20194;-82
2023/03/08 10:39:51;;;;;;;6.40;3.27;;;5.30;99.90;;;;;;5035797;28;20679;-90
2023/03/08 10:42:20;;;;;;;5.40;3.60;;;5.40;99.90;;;;;;5042440;28;20251;-88
2023/03/08 10:44:53;;;;;;;6.60;3.93;;;5.50;99.90;;;;;;5054410;28;20202;-89
2023/03/08 10:47:22;;;;;;;4.60;3.00;;;5.60;99.90;;;;;;5053982;28;20189;-86
2023/03/08 10:49:50;;;;;;;3.30;2.70;;;5.60;99.90;;;;;;5036954;28;20588;-91
2023/03/08 10:52:24;;;;;;;4.20;2.67;;;5.70;99.90;;;;;;5035082;28;20575;-87
2023/03/08 10:55:02;;;;;;;5.17;2.57;;;5.80;99.90;;;;;;5037186;28;20225;-91
2023/03/08 10:57:30;;;;;;;5.00;2.30;;;5.70;99.90;;;;;;5036931;28;20216;-86
2023/03/08 11:00:01;;;;;;;6.03;2.57;;;5.60;99.90;;;;;;5035638;28;20661;-90
2023/03/08 11:02:28;;;;;;;3.60;2.40;;;5.70;99.90;;;;;;5046396;28;20237;-90
2023/03/08 11:04:56;;;;;;;6.50;2.53;;;5.70;99.90;;;;;;5054453;28;20228;-84
2023/03/08 11:07:26;;;;;;;4.10;2.60;;;5.80;99.90;;;;;;5037904;28;20228;-86
2023/03/08 11:10:04;;;;;;;4.63;2.47;;;5.70;99.90;;;;;;5036280;28;20272;-85
2023/03/08 11:12:32;;;;;;;8.50;3.00;;;5.60;99.90;;;;;;5054080;28;20201;-85
2023/03/08 11:14:59;;;;;;;5.10;2.50;;;5.70;99.90;;;;;;5045716;28;20289;-82
2023/03/08 11:17:30;;;;;;;5.60;2.73;;;5.70;99.90;;;;;;5053194;28;20276;-78
2023/03/08 11:20:09;;;;;;;2.80;2.30;;;5.80;99.90;;;;;;5044093;28;20206;-83
2023/03/08 11:22:50;;;;;;;3.73;2.30;;;5.80;99.90;;;;;;5036759;28;20209;-84
2023/03/08 11:25:29;;;;;;;4.47;2.40;;;5.90;99.90;;;;;;5034733;28;20261;-86
2023/03/08 11:28:11;;;;;;;5.20;1.80;;;5.90;99.90;;;;;;5033224;28;20190;-82
2023/03/08 11:30:51;;;;;;;3.50;2.47;;;6.00;99.90;;;;;;5050854;28;20186;-81
2023/03/08 11:33:53;;;;;;;5.07;2.60;;;6.10;99.90;;;;;;5052282;28;20285;-79
2023/03/08 11:36:24;;;;;;;5.07;2.47;;;6.10;99.90;;;;;;5047635;28;20201;-82
2023/03/08 11:38:58;;;;;;;4.03;2.77;;;6.00;99.90;;;;;;5032973;28;20653;-82
2023/03/08 11:41:31;;;;;;;3.30;2.60;;;6.00;99.90;;;;;;5034017;28;20199;-83
2023/03/08 11:44:21;;;;;;;3.83;2.57;;;6.00;99.90;;;;;;5033668;28;20638;-79
2023/03/08 11:46:59;;;;;;;3.43;3.13;;;6.20;99.90;;;;;;5033132;28;20598;-83
2023/03/08 11:49:51;;;;;;;5.97;3.23;;;6.20;99.90;;;;;;5033659;28;20186;-82
2023/03/08 11:52:27;;;;;;;5.30;3.57;;;6.30;99.90;;;;;;5034248;28;20471;-87
2023/03/08 11:55:06;;;;;;;6.50;3.20;;;6.30;99.90;;;;;;5049448;28;20255;-84
2023/03/08 11:57:37;;;;;;;3.00;2.70;;;6.30;99.90;;;;;;5048645;28;20280;-84
2023/03/08 12:00:15;;;;;;;7.43;4.37;;;6.30;99.90;;;;;;5038268;28;20253;-85
2023/03/08 12:02:47;;;;;;;4.30;3.10;;;6.30;99.90;;;;;;5048478;28;20204;-80
2023/03/08 12:05:28;;;;;;;5.93;3.17;;;6.30;99.90;;;;;;5038226;28;20209;-82
2023/03/08 12:07:59;;;;;;;4.13;3.17;;;6.40;99.90;;;;;;5045908;28;20207;-80
2023/03/08 12:10:30;;;;;;;4.10;2.93;;;6.40;99.90;;;;;;5040582;28;20271;-79
2023/03/08 12:13:01;;;;;;;4.87;2.77;;;6.10;99.90;;;;;;5044312;28;20285;-78
2023/03/08 12:15:35;;;;;;;5.20;3.33;;;6.00;99.90;;;;;;5033251;28;20313;-82
2023/03/08 12:18:08;;;;;;;5.67;4.13;;;5.90;99.90;;;;;;5040662;28;20212;-77
2023/03/08 12:20:39;;;;;;;5.07;4.10;;;5.90;99.90;;;;;;5031455;28;20223;-78
2023/03/08 12:23:18;;;;;;;6.90;3.43;;;5.80;99.90;;;;;;5030975;28;20329;-79
2023/03/08 12:25:48;;;;;;;8.83;4.00;;;5.70;99.90;;;;;;5031709;28;20297;-78
2023/03/08 12:28:23;;;;;;;6.07;3.67;;;5.70;99.90;;;;;;5031877;28;20237;-77
2023/03/08 12:31:03;;;;;;;7.30;3.57;;;5.60;99.90;;;;;;5031506;28;20210;-84
2023/03/08 12:33:31;;;;;;;8.43;3.57;;;5.40;99.90;;;;;;5033073;28;20207;-79
2023/03/08 12:35:59;;;;;;;5.97;4.43;;;5.20;99.90;;;;;;5041194;28;20202;-81
2023/03/08 12:38:33;;;;;;;5.87;4.37;;;5.30;99.90;;;;;;5052291;28;20221;-79
2023/03/08 12:41:00;;;;;;;5.60;4.43;;;5.30;99.90;;;;;;5042466;28;20213;-85
2023/03/08 12:43:32;;;;;;;5.73;4.30;;;5.30;99.90;;;;;;5033365;28;20205;-87
2023/03/08 12:46:06;;;;;;;6.93;4.50;;;5.30;99.90;;;;;;5033799;28;20203;-84
2023/03/08 12:48:36;;;;;;;7.67;4.77;;;5.30;99.90;;;;;;5036010;28;20204;-81
2023/03/08 12:51:09;;;;;;;7.50;4.50;;;5.30;99.90;;;;;;5035597;28;20200;-85
2023/03/08 12:53:39;;;;;;;6.53;4.50;;;5.20;99.90;;;;;;5036126;28;20205;-83
2023/03/08 12:56:18;;;;;;;8.53;5.30;;;5.30;99.90;;;;;;5036145;28;20273;-82
2023/03/08 12:58:51;;;;;;;8.20;4.97;;;5.30;99.90;;;;;;5035245;28;20303;-82
2023/03/08 13:01:36;;;;;;;6.87;4.80;;;5.40;99.90;;;;;;5037125;28;20206;-87
2023/03/08 13:04:04;;;;;;;10.43;5.97;;;5.50;99.90;;;;;;5055910;28;20228;-86
2023/03/08 13:06:49;;;;;;;7.80;5.83;;;5.60;99.90;;;;;;5057480;28;20218;-88